sensor_id;sensor_type;location;lat;lon;timestamp;P1;durP1;ratioP1;P2;durP2;ratioP2
3755;SDS011;1893;52.526;13.360;2023-05-23T00:01:02;6.80;;;4.27;;
3755;SDS011;1893;52.526;13.360;2023-05-23T00:03:30;3.83;;;3.40;;
3755;SDS011;1893;52.526;13.360;2023-05-23T00:05:57;10.23;;;4.53;;
3755;SDS011;1893;52.526;13.360;2023-05-23T00:08:23;4.43;;;3.80;;
3755;SDS011;1893;52.526;13.360;2023-05-23T00:10:48;4.73;;;4.00;;
3755;SDS011;1893;52.526;13.360;2023-05-23T00:13:14;10.27;;;4.90;;
3755;SDS011;1893;52.526;13.360;2023-05-23T00:15:43;6.57;;;5.03;;
3755;SDS011;1893;52.526;13.360;2023-05-23T00:18:09;6.20;;;4.90;;
3755;SDS011;1893;52.526;13.360;2023-05-23T00:20:35;7.27;;;4.40;;
3755;SDS011;1893;52.526;13.360;2023-05-23T00:23:01;6.07;;;4.83;;
3755;SDS011;1893;52.526;13.360;2023-05-23T00:25:28;4.70;;;4.30;;
3755;SDS011;1893;52.526;13.360;2023-05-23T00:28:01;8.07;;;3.97;;
3755;SDS011;1893;52.526;13.360;2023-05-23T00:30:31;5.80;;;4.30;;
3755;SDS011;1893;52.526;13.360;2023-05-23T00:32:57;5.30;;;4.17;;
3755;SDS011;1893;52.526;13.360;2023-05-23T00:35:24;5.17;;;4.60;;
3755;SDS011;1893;52.526;13.360;2023-05-23T00:37:50;4.97;;;4.10;;
3755;SDS011;1893;52.526;13.360;2023-05-23T00:40:19;8.17;;;5.13;;
3755;SDS011;1893;52.526;13.360;2023-05-23T00:42:45;5.60;;;4.20;;
3755;SDS011;1893;52.526;13.360;2023-05-23T00:45:13;5.20;;;4.00;;
3755;SDS011;1893;52.526;13.360;2023-05-23T00:47:41;5.13;;;4.63;;
3755;SDS011;1893;52.526;13.360;2023-05-23T00:50:07;4.73;;;3.90;;
3755;SDS011;1893;52.526;13.360;2023-05-23T00:52:36;5.60;;;4.43;;
3755;SDS011;1893;52.526;13.360;2023-05-23T00:55:03;6.87;;;4.57;;
3755;SDS011;1893;52.526;13.360;2023-05-23T00:57:30;4.93;;;4.20;;
3755;SDS011;1893;52.526;13.360;2023-05-23T00:59:58;7.97;;;4.90;;
3755;SDS011;1893;52.526;13.360;2023-05-23T01:02:25;8.43;;;4.53;;
3755;SDS011;1893;52.526;13.360;2023-05-23T01:04:51;7.23;;;5.13;;
3755;SDS011;1893;52.526;13.360;2023-05-23T01:07:19;6.60;;;4.47;;
3755;SDS011;1893;52.526;13.360;2023-05-23T01:09:45;6.37;;;4.80;;
3755;SDS011;1893;52.526;13.360;2023-05-23T01:17:40;8.23;;;4.50;;
3755;SDS011;1893;52.526;13.360;2023-05-23T01:20:33;4.70;;;4.30;;
3755;SDS011;1893;52.526;13.360;2023-05-23T01:28:54;9.03;;;4.47;;
3755;SDS011;1893;52.526;13.360;2023-05-23T01:31:23;5.43;;;4.90;;
3755;SDS011;1893;52.526;13.360;2023-05-23T01:33:53;4.20;;;3.47;;
3755;SDS011;1893;52.526;13.360;2023-05-23T01:36:20;8.60;;;5.10;;
3755;SDS011;1893;52.526;13.360;2023-05-23T01:38:46;5.97;;;5.00;;
3755;SDS011;1893;52.526;13.360;2023-05-23T01:41:11;4.87;;;4.47;;
3755;SDS011;1893;52.526;13.360;2023-05-23T01:43:37;5.97;;;4.63;;
3755;SDS011;1893;52.526;13.360;2023-05-23T01:46:03;5.20;;;4.70;;
3755;SDS011;1893;52.526;13.360;2023-05-23T01:48:31;9.77;;;4.80;;
3755;SDS011;1893;52.526;13.360;2023-05-23T01:50:57;7.73;;;4.90;;
3755;SDS011;1893;52.526;13.360;2023-05-23T01:53:23;7.57;;;4.80;;
3755;SDS011;1893;52.526;13.360;2023-05-23T01:55:50;6.67;;;4.40;;
3755;SDS011;1893;52.526;13.360;2023-05-23T01:58:17;6.40;;;4.77;;
3755;SDS011;1893;52.526;13.360;2023-05-23T02:00:42;6.57;;;4.30;;
3755;SDS011;1893;52.526;13.360;2023-05-23T02:03:08;7.50;;;4.20;;
3755;SDS011;1893;52.526;13.360;2023-05-23T02:05:35;4.87;;;4.23;;
3755;SDS011;1893;52.526;13.360;2023-05-23T02:08:01;5.53;;;4.90;;
3755;SDS011;1893;52.526;13.360;2023-05-23T02:10:26;8.73;;;3.97;;
3755;SDS011;1893;52.526;13.360;2023-05-23T02:12:52;10.03;;;4.93;;
3755;SDS011;1893;52.526;13.360;2023-05-23T02:15:18;5.63;;;4.30;;
3755;SDS011;1893;52.526;13.360;2023-05-23T02:17:43;6.57;;;4.57;;
3755;SDS011;1893;52.526;13.360;2023-05-23T02:20:09;5.30;;;4.50;;
3755;SDS011;1893;52.526;13.360;2023-05-23T02:22:35;6.00;;;4.70;;
3755;SDS011;1893;52.526;13.360;2023-05-23T02:25:00;5.70;;;4.53;;
3755;SDS011;1893;52.526;13.360;2023-05-23T02:27:26;5.70;;;4.70;;
3755;SDS011;1893;52.526;13.360;2023-05-23T02:29:52;6.60;;;5.43;;
3755;SDS011;1893;52.526;13.360;2023-05-23T02:32:18;4.90;;;4.50;;
3755;SDS011;1893;52.526;13.360;2023-05-23T02:34:43;7.97;;;4.67;;
3755;SDS011;1893;52.526;13.360;2023-05-23T02:37:14;8.20;;;5.33;;
3755;SDS011;1893;52.526;13.360;2023-05-23T02:39:40;7.63;;;4.50;;
3755;SDS011;1893;52.526;13.360;2023-05-23T02:42:07;7.83;;;5.17;;
3755;SDS011;1893;52.526;13.360;2023-05-23T02:44:32;5.90;;;5.07;;
3755;SDS011;1893;52.526;13.360;2023-05-23T02:46:58;9.33;;;5.30;;
3755;SDS011;1893;52.526;13.360;2023-05-23T02:49:24;9.33;;;5.17;;
3755;SDS011;1893;52.526;13.360;2023-05-23T02:51:49;7.43;;;4.97;;
3755;SDS011;1893;52.526;13.360;2023-05-23T02:54:15;7.07;;;5.37;;
3755;SDS011;1893;52.526;13.360;2023-05-23T02:56:41;8.50;;;5.40;;
3755;SDS011;1893;52.526;13.360;2023-05-23T02:59:07;6.23;;;5.63;;
3755;SDS011;1893;52.526;13.360;2023-05-23T03:01:32;7.80;;;4.90;;
3755;SDS011;1893;52.526;13.360;2023-05-23T03:03:58;5.80;;;5.30;;
3755;SDS011;1893;52.526;13.360;2023-05-23T03:06:23;8.60;;;6.20;;
3755;SDS011;1893;52.526;13.360;2023-05-23T03:08:49;5.83;;;4.87;;
3755;SDS011;1893;52.526;13.360;2023-05-23T03:11:14;10.10;;;5.90;;
3755;SDS011;1893;52.526;13.360;2023-05-23T03:13:40;5.70;;;5.20;;
3755;SDS011;1893;52.526;13.360;2023-05-23T03:16:06;9.03;;;5.23;;
3755;SDS011;1893;52.526;13.360;2023-05-23T03:18:31;6.53;;;5.30;;
3755;SDS011;1893;52.526;13.360;2023-05-23T03:20:57;6.40;;;5.80;;
3755;SDS011;1893;52.526;13.360;2023-05-23T03:23:22;12.47;;;5.80;;
3755;SDS011;1893;52.526;13.360;2023-05-23T03:25:48;7.53;;;5.70;;
3755;SDS011;1893;52.526;13.360;2023-05-23T03:28:14;10.47;;;5.80;;
3755;SDS011;1893;52.526;13.360;2023-05-23T03:30:39;7.43;;;5.20;;
3755;SDS011;1893;52.526;13.360;2023-05-23T03:33:05;5.93;;;5.30;;
3755;SDS011;1893;52.526;13.360;2023-05-23T03:35:31;6.77;;;6.07;;
3755;SDS011;1893;52.526;13.360;2023-05-23T03:37:57;6.43;;;5.83;;
3755;SDS011;1893;52.526;13.360;2023-05-23T03:40:22;7.60;;;5.90;;
3755;SDS011;1893;52.526;13.360;2023-05-23T03:42:48;8.03;;;7.03;;
3755;SDS011;1893;52.526;13.360;2023-05-23T03:45:34;9.83;;;6.70;;
3755;SDS011;1893;52.526;13.360;2023-05-23T03:48:00;10.33;;;6.20;;
3755;SDS011;1893;52.526;13.360;2023-05-23T03:50:26;7.83;;;5.23;;
3755;SDS011;1893;52.526;13.360;2023-05-23T03:52:52;7.70;;;6.93;;
3755;SDS011;1893;52.526;13.360;2023-05-23T03:55:18;5.90;;;5.30;;
3755;SDS011;1893;52.526;13.360;2023-05-23T03:57:47;6.53;;;5.60;;
3755;SDS011;1893;52.526;13.360;2023-05-23T04:00:13;7.07;;;6.33;;
3755;SDS011;1893;52.526;13.360;2023-05-23T04:02:39;6.77;;;5.27;;
3755;SDS011;1893;52.526;13.360;2023-05-23T04:05:05;11.00;;;5.30;;
3755;SDS011;1893;52.526;13.360;2023-05-23T04:07:31;6.40;;;5.80;;
3755;SDS011;1893;52.526;13.360;2023-05-23T04:10:00;9.40;;;6.17;;
3755;SDS011;1893;52.526;13.360;2023-05-23T04:12:26;6.70;;;6.00;;
3755;SDS011;1893;52.526;13.360;2023-05-23T04:14:54;8.60;;;6.00;;
3755;SDS011;1893;52.526;13.360;2023-05-23T04:17:20;7.50;;;5.87;;
3755;SDS011;1893;52.526;13.360;2023-05-23T04:19:46;7.50;;;6.20;;
3755;SDS011;1893;52.526;13.360;2023-05-23T04:22:12;7.13;;;6.33;;
3755;SDS011;1893;52.526;13.360;2023-05-23T04:24:37;6.53;;;5.80;;
3755;SDS011;1893;52.526;13.360;2023-05-23T04:27:03;7.07;;;6.37;;
3755;SDS011;1893;52.526;13.360;2023-05-23T04:29:29;8.63;;;6.40;;
3755;SDS011;1893;52.526;13.360;2023-05-23T04:31:57;7.07;;;6.30;;
3755;SDS011;1893;52.526;13.360;2023-05-23T04:34:23;7.00;;;5.97;;
3755;SDS011;1893;52.526;13.360;2023-05-23T04:36:48;7.50;;;5.17;;
3755;SDS011;1893;52.526;13.360;2023-05-23T04:39:14;7.00;;;5.60;;
3755;SDS011;1893;52.526;13.360;2023-05-23T04:41:40;11.13;;;5.97;;
3755;SDS011;1893;52.526;13.360;2023-05-23T04:44:08;8.13;;;6.43;;
3755;SDS011;1893;52.526;13.360;2023-05-23T04:46:34;6.73;;;5.73;;
3755;SDS011;1893;52.526;13.360;2023-05-23T04:49:00;9.30;;;6.47;;
3755;SDS011;1893;52.526;13.360;2023-05-23T04:51:28;9.87;;;6.33;;
3755;SDS011;1893;52.526;13.360;2023-05-23T04:53:53;8.33;;;6.57;;
3755;SDS011;1893;52.526;13.360;2023-05-23T04:56:19;7.17;;;6.10;;
3755;SDS011;1893;52.526;13.360;2023-05-23T04:58:45;59.33;;;37.93;;
3755;SDS011;1893;52.526;13.360;2023-05-23T05:01:12;18.63;;;13.57;;
3755;SDS011;1893;52.526;13.360;2023-05-23T05:03:38;26.43;;;15.57;;
3755;SDS011;1893;52.526;13.360;2023-05-23T05:06:04;9.80;;;7.50;;
3755;SDS011;1893;52.526;13.360;2023-05-23T05:08:31;10.63;;;7.57;;
3755;SDS011;1893;52.526;13.360;2023-05-23T05:10:57;12.57;;;6.23;;
3755;SDS011;1893;52.526;13.360;2023-05-23T05:13:22;10.33;;;5.80;;
3755;SDS011;1893;52.526;13.360;2023-05-23T05:15:48;12.00;;;7.40;;
3755;SDS011;1893;52.526;13.360;2023-05-23T05:18:13;8.23;;;6.10;;
3755;SDS011;1893;52.526;13.360;2023-05-23T05:20:40;10.63;;;6.70;;
3755;SDS011;1893;52.526;13.360;2023-05-23T05:23:06;10.30;;;6.60;;
3755;SDS011;1893;52.526;13.360;2023-05-23T05:25:33;6.90;;;6.23;;
3755;SDS011;1893;52.526;13.360;2023-05-23T05:28:00;8.23;;;6.00;;
3755;SDS011;1893;52.526;13.360;2023-05-23T05:30:29;11.27;;;6.63;;
3755;SDS011;1893;52.526;13.360;2023-05-23T05:32:59;7.93;;;5.80;;
3755;SDS011;1893;52.526;13.360;2023-05-23T05:35:31;8.70;;;6.20;;
3755;SDS011;1893;52.526;13.360;2023-05-23T05:37:57;9.17;;;6.17;;
3755;SDS011;1893;52.526;13.360;2023-05-23T05:40:23;11.37;;;6.90;;
3755;SDS011;1893;52.526;13.360;2023-05-23T05:42:48;12.73;;;6.33;;
3755;SDS011;1893;52.526;13.360;2023-05-23T05:45:14;6.90;;;6.17;;
3755;SDS011;1893;52.526;13.360;2023-05-23T05:47:40;10.60;;;6.33;;
3755;SDS011;1893;52.526;13.360;2023-05-23T05:50:06;12.23;;;6.97;;
3755;SDS011;1893;52.526;13.360;2023-05-23T05:52:34;8.33;;;5.97;;
3755;SDS011;1893;52.526;13.360;2023-05-23T05:55:06;9.30;;;6.50;;
3755;SDS011;1893;52.526;13.360;2023-05-23T05:57:34;11.40;;;7.23;;
3755;SDS011;1893;52.526;13.360;2023-05-23T06:00:02;12.73;;;7.43;;
3755;SDS011;1893;52.526;13.360;2023-05-23T06:02:36;11.93;;;7.03;;
3755;SDS011;1893;52.526;13.360;2023-05-23T06:05:01;10.40;;;7.20;;
3755;SDS011;1893;52.526;13.360;2023-05-23T06:07:28;12.27;;;6.70;;
3755;SDS011;1893;52.526;13.360;2023-05-23T06:09:53;14.03;;;7.33;;
3755;SDS011;1893;52.526;13.360;2023-05-23T06:12:19;8.97;;;6.50;;
3755;SDS011;1893;52.526;13.360;2023-05-23T06:14:45;10.03;;;6.50;;
3755;SDS011;1893;52.526;13.360;2023-05-23T06:17:10;9.30;;;6.60;;
3755;SDS011;1893;52.526;13.360;2023-05-23T06:19:36;10.60;;;6.73;;
3755;SDS011;1893;52.526;13.360;2023-05-23T06:22:02;10.80;;;7.00;;
3755;SDS011;1893;52.526;13.360;2023-05-23T06:24:28;10.87;;;7.60;;
3755;SDS011;1893;52.526;13.360;2023-05-23T06:26:53;9.10;;;6.97;;
3755;SDS011;1893;52.526;13.360;2023-05-23T06:29:19;12.30;;;6.13;;
3755;SDS011;1893;52.526;13.360;2023-05-23T06:31:44;21.10;;;7.00;;
3755;SDS011;1893;52.526;13.360;2023-05-23T06:34:10;16.20;;;7.50;;
3755;SDS011;1893;52.526;13.360;2023-05-23T06:36:36;11.57;;;5.90;;
3755;SDS011;1893;52.526;13.360;2023-05-23T06:39:01;11.70;;;7.00;;
3755;SDS011;1893;52.526;13.360;2023-05-23T06:41:27;11.00;;;7.03;;
3755;SDS011;1893;52.526;13.360;2023-05-23T06:43:52;12.03;;;7.23;;
3755;SDS011;1893;52.526;13.360;2023-05-23T06:46:18;15.93;;;7.20;;
3755;SDS011;1893;52.526;13.360;2023-05-23T06:48:44;13.13;;;7.30;;
3755;SDS011;1893;52.526;13.360;2023-05-23T06:51:09;8.07;;;6.60;;
3755;SDS011;1893;52.526;13.360;2023-05-23T06:53:35;8.10;;;6.27;;
3755;SDS011;1893;52.526;13.360;2023-05-23T06:56:00;18.40;;;7.93;;
3755;SDS011;1893;52.526;13.360;2023-05-23T06:58:26;11.83;;;7.23;;
3755;SDS011;1893;52.526;13.360;2023-05-23T07:00:52;14.43;;;7.37;;
3755;SDS011;1893;52.526;13.360;2023-05-23T07:03:17;20.80;;;7.50;;
3755;SDS011;1893;52.526;13.360;2023-05-23T07:05:43;8.97;;;7.37;;
3755;SDS011;1893;52.526;13.360;2023-05-23T07:08:08;11.73;;;7.10;;
3755;SDS011;1893;52.526;13.360;2023-05-23T07:10:37;10.20;;;6.93;;
3755;SDS011;1893;52.526;13.360;2023-05-23T07:13:05;14.20;;;7.40;;
3755;SDS011;1893;52.526;13.360;2023-05-23T07:15:30;13.40;;;7.37;;
3755;SDS011;1893;52.526;13.360;2023-05-23T07:17:56;15.37;;;7.43;;
3755;SDS011;1893;52.526;13.360;2023-05-23T07:20:21;8.53;;;6.77;;
3755;SDS011;1893;52.526;13.360;2023-05-23T07:22:47;11.10;;;5.90;;
3755;SDS011;1893;52.526;13.360;2023-05-23T07:25:15;16.40;;;7.47;;
3755;SDS011;1893;52.526;13.360;2023-05-23T07:27:41;11.83;;;8.27;;
3755;SDS011;1893;52.526;13.360;2023-05-23T07:30:07;8.00;;;6.50;;
3755;SDS011;1893;52.526;13.360;2023-05-23T07:32:34;9.67;;;7.47;;
3755;SDS011;1893;52.526;13.360;2023-05-23T07:35:00;11.23;;;6.67;;
3755;SDS011;1893;52.526;13.360;2023-05-23T07:37:26;9.00;;;6.10;;
3755;SDS011;1893;52.526;13.360;2023-05-23T07:39:52;13.60;;;7.13;;
3755;SDS011;1893;52.526;13.360;2023-05-23T07:42:18;9.90;;;6.77;;
3755;SDS011;1893;52.526;13.360;2023-05-23T07:44:43;9.37;;;7.27;;
3755;SDS011;1893;52.526;13.360;2023-05-23T07:47:09;17.10;;;11.43;;
3755;SDS011;1893;52.526;13.360;2023-05-23T07:49:34;13.80;;;7.50;;
3755;SDS011;1893;52.526;13.360;2023-05-23T07:52:00;9.13;;;6.37;;
3755;SDS011;1893;52.526;13.360;2023-05-23T07:54:25;9.97;;;7.27;;
3755;SDS011;1893;52.526;13.360;2023-05-23T07:56:52;8.83;;;6.70;;
3755;SDS011;1893;52.526;13.360;2023-05-23T07:59:18;11.00;;;6.90;;
3755;SDS011;1893;52.526;13.360;2023-05-23T08:01:44;8.17;;;6.53;;
3755;SDS011;1893;52.526;13.360;2023-05-23T08:04:09;11.37;;;6.23;;
3755;SDS011;1893;52.526;13.360;2023-05-23T08:06:35;10.60;;;6.30;;
3755;SDS011;1893;52.526;13.360;2023-05-23T08:09:01;11.03;;;6.77;;
3755;SDS011;1893;52.526;13.360;2023-05-23T08:11:28;10.70;;;6.40;;
3755;SDS011;1893;52.526;13.360;2023-05-23T08:13:54;10.97;;;6.60;;
3755;SDS011;1893;52.526;13.360;2023-05-23T08:16:20;7.57;;;6.80;;
3755;SDS011;1893;52.526;13.360;2023-05-23T08:18:46;9.57;;;6.67;;
3755;SDS011;1893;52.526;13.360;2023-05-23T08:21:12;7.50;;;6.50;;
3755;SDS011;1893;52.526;13.360;2023-05-23T08:23:38;8.27;;;6.30;;
3755;SDS011;1893;52.526;13.360;2023-05-23T08:26:03;11.27;;;6.83;;
3755;SDS011;1893;52.526;13.360;2023-05-23T08:28:29;8.80;;;6.60;;
3755;SDS011;1893;52.526;13.360;2023-05-23T08:30:54;11.00;;;6.90;;
3755;SDS011;1893;52.526;13.360;2023-05-23T08:33:21;10.80;;;6.33;;
3755;SDS011;1893;52.526;13.360;2023-05-23T08:35:47;6.90;;;5.63;;
3755;SDS011;1893;52.526;13.360;2023-05-23T08:38:12;10.13;;;7.40;;
3755;SDS011;1893;52.526;13.360;2023-05-23T08:40:38;10.33;;;6.60;;
3755;SDS011;1893;52.526;13.360;2023-05-23T08:43:05;7.83;;;6.10;;
3755;SDS011;1893;52.526;13.360;2023-05-23T08:45:31;10.67;;;8.40;;
3755;SDS011;1893;52.526;13.360;2023-05-23T08:47:59;9.33;;;7.20;;
3755;SDS011;1893;52.526;13.360;2023-05-23T08:50:26;7.77;;;7.03;;
3755;SDS011;1893;52.526;13.360;2023-05-23T08:52:55;10.57;;;6.70;;
3755;SDS011;1893;52.526;13.360;2023-05-23T08:55:27;8.60;;;7.00;;
3755;SDS011;1893;52.526;13.360;2023-05-23T08:57:54;8.87;;;7.10;;
3755;SDS011;1893;52.526;13.360;2023-05-23T09:00:21;8.77;;;6.60;;
3755;SDS011;1893;52.526;13.360;2023-05-23T09:02:49;8.90;;;6.70;;
3755;SDS011;1893;52.526;13.360;2023-05-23T09:05:15;8.60;;;7.00;;
3755;SDS011;1893;52.526;13.360;2023-05-23T09:07:42;8.87;;;7.30;;
3755;SDS011;1893;52.526;13.360;2023-05-23T09:10:09;9.47;;;8.03;;
3755;SDS011;1893;52.526;13.360;2023-05-23T09:12:35;9.87;;;6.73;;
3755;SDS011;1893;52.526;13.360;2023-05-23T09:15:05;10.13;;;7.60;;
3755;SDS011;1893;52.526;13.360;2023-05-23T09:17:33;10.60;;;8.10;;
3755;SDS011;1893;52.526;13.360;2023-05-23T09:20:00;8.10;;;7.30;;
3755;SDS011;1893;52.526;13.360;2023-05-23T09:22:26;10.20;;;8.57;;
3755;SDS011;1893;52.526;13.360;2023-05-23T09:24:55;11.43;;;7.93;;
3755;SDS011;1893;52.526;13.360;2023-05-23T09:27:21;10.40;;;8.23;;
3755;SDS011;1893;52.526;13.360;2023-05-23T09:29:48;8.27;;;7.40;;
3755;SDS011;1893;52.526;13.360;2023-05-23T09:32:15;12.10;;;8.30;;
3755;SDS011;1893;52.526;13.360;2023-05-23T09:34:41;9.30;;;7.50;;
3755;SDS011;1893;52.526;13.360;2023-05-23T09:37:31;8.20;;;7.40;;
3755;SDS011;1893;52.526;13.360;2023-05-23T09:40:02;14.97;;;8.27;;
3755;SDS011;1893;52.526;13.360;2023-05-23T09:42:42;8.00;;;7.30;;
3755;SDS011;1893;52.526;13.360;2023-05-23T09:45:10;9.87;;;7.60;;
3755;SDS011;1893;52.526;13.360;2023-05-23T09:47:49;9.20;;;8.40;;
3755;SDS011;1893;52.526;13.360;2023-05-23T09:50:18;9.90;;;7.17;;
3755;SDS011;1893;52.526;13.360;2023-05-23T09:52:44;9.57;;;7.67;;
3755;SDS011;1893;52.526;13.360;2023-05-23T09:55:11;8.17;;;7.30;;
3755;SDS011;1893;52.526;13.360;2023-05-23T09:57:38;8.67;;;7.77;;
3755;SDS011;1893;52.526;13.360;2023-05-23T10:00:06;9.50;;;7.73;;
3755;SDS011;1893;52.526;13.360;2023-05-23T10:05:40;13.10;;;7.93;;
3755;SDS011;1893;52.526;13.360;2023-05-23T10:08:13;8.37;;;7.57;;
3755;SDS011;1893;52.526;13.360;2023-05-23T10:13:15;7.03;;;6.43;;
3755;SDS011;1893;52.526;13.360;2023-05-23T10:15:41;9.90;;;8.93;;
3755;SDS011;1893;52.526;13.360;2023-05-23T10:18:24;11.43;;;9.30;;
3755;SDS011;1893;52.526;13.360;2023-05-23T10:20:53;9.50;;;8.50;;
3755;SDS011;1893;52.526;13.360;2023-05-23T10:23:25;10.53;;;8.30;;
3755;SDS011;1893;52.526;13.360;2023-05-23T10:25:52;13.77;;;8.37;;
3755;SDS011;1893;52.526;13.360;2023-05-23T10:28:19;9.67;;;8.73;;
3755;SDS011;1893;52.526;13.360;2023-05-23T10:30:45;14.03;;;10.03;;
3755;SDS011;1893;52.526;13.360;2023-05-23T10:33:10;11.53;;;10.03;;
3755;SDS011;1893;52.526;13.360;2023-05-23T10:36:03;10.30;;;9.40;;
3755;SDS011;1893;52.526;13.360;2023-05-23T10:41:57;15.83;;;10.77;;
3755;SDS011;1893;52.526;13.360;2023-05-23T10:44:10;14.13;;;12.73;;
3755;SDS011;1893;52.526;13.360;2023-05-23T10:52:10;15.33;;;13.93;;
3755;SDS011;1893;52.526;13.360;2023-05-23T10:54:43;17.90;;;14.30;;
3755;SDS011;1893;52.526;13.360;2023-05-23T10:57:15;17.73;;;14.40;;
3755;SDS011;1893;52.526;13.360;2023-05-23T10:59:43;18.97;;;15.03;;
3755;SDS011;1893;52.526;13.360;2023-05-23T11:02:14;20.53;;;15.67;;
3755;SDS011;1893;52.526;13.360;2023-05-23T11:04:42;21.97;;;17.17;;
3755;SDS011;1893;52.526;13.360;2023-05-23T11:10:03;21.10;;;18.87;;
3755;SDS011;1893;52.526;13.360;2023-05-23T11:12:42;25.37;;;18.40;;
3755;SDS011;1893;52.526;13.360;2023-05-23T11:17:49;21.87;;;19.40;;
3755;SDS011;1893;52.526;13.360;2023-05-23T11:20:17;22.83;;;19.40;;
3755;SDS011;1893;52.526;13.360;2023-05-23T11:23:21;26.17;;;19.00;;
3755;SDS011;1893;52.526;13.360;2023-05-23T11:25:43;20.83;;;18.40;;
3755;SDS011;1893;52.526;13.360;2023-05-23T11:28:13;24.17;;;19.60;;
3755;SDS011;1893;52.526;13.360;2023-05-23T11:30:39;22.07;;;19.27;;
3755;SDS011;1893;52.526;13.360;2023-05-23T11:33:06;22.33;;;18.90;;
3755;SDS011;1893;52.526;13.360;2023-05-23T11:35:41;23.90;;;19.93;;
3755;SDS011;1893;52.526;13.360;2023-05-23T11:38:08;22.80;;;18.70;;
3755;SDS011;1893;52.526;13.360;2023-05-23T11:40:35;27.13;;;20.47;;
3755;SDS011;1893;52.526;13.360;2023-05-23T11:43:08;25.30;;;18.50;;
3755;SDS011;1893;52.526;13.360;2023-05-23T11:45:36;23.57;;;19.80;;
3755;SDS011;1893;52.526;13.360;2023-05-23T11:50:45;27.37;;;20.37;;
3755;SDS011;1893;52.526;13.360;2023-05-23T11:53:18;25.87;;;21.20;;
3755;SDS011;1893;52.526;13.360;2023-05-23T11:58:16;25.00;;;21.43;;
3755;SDS011;1893;52.526;13.360;2023-05-23T12:00:43;23.93;;;20.63;;
3755;SDS011;1893;52.526;13.360;2023-05-23T12:03:09;22.30;;;19.13;;
3755;SDS011;1893;52.526;13.360;2023-05-23T12:05:35;24.20;;;19.73;;
3755;SDS011;1893;52.526;13.360;2023-05-23T12:08:01;23.23;;;20.00;;
3755;SDS011;1893;52.526;13.360;2023-05-23T12:10:27;24.63;;;20.37;;
3755;SDS011;1893;52.526;13.360;2023-05-23T12:12:53;28.23;;;20.47;;
3755;SDS011;1893;52.526;13.360;2023-05-23T12:15:23;30.37;;;21.70;;
3755;SDS011;1893;52.526;13.360;2023-05-23T12:17:53;22.70;;;19.10;;
3755;SDS011;1893;52.526;13.360;2023-05-23T12:20:20;26.90;;;20.50;;
3755;SDS011;1893;52.526;13.360;2023-05-23T12:22:46;24.57;;;19.37;;
3755;SDS011;1893;52.526;13.360;2023-05-23T12:25:12;26.27;;;19.90;;
3755;SDS011;1893;52.526;13.360;2023-05-23T12:27:39;29.33;;;21.20;;
3755;SDS011;1893;52.526;13.360;2023-05-23T12:30:14;25.83;;;20.90;;
3755;SDS011;1893;52.526;13.360;2023-05-23T12:32:44;24.50;;;19.87;;
3755;SDS011;1893;52.526;13.360;2023-05-23T12:35:11;28.33;;;21.67;;
3755;SDS011;1893;52.526;13.360;2023-05-23T12:37:38;24.17;;;19.43;;
3755;SDS011;1893;52.526;13.360;2023-05-23T12:42:53;22.43;;;19.17;;
3755;SDS011;1893;52.526;13.360;2023-05-23T12:45:23;21.93;;;17.70;;
3755;SDS011;1893;52.526;13.360;2023-05-23T12:47:56;23.93;;;18.13;;
3755;SDS011;1893;52.526;13.360;2023-05-23T12:50:21;23.50;;;15.90;;
3755;SDS011;1893;52.526;13.360;2023-05-23T12:52:47;20.70;;;15.53;;
3755;SDS011;1893;52.526;13.360;2023-05-23T12:55:13;21.03;;;16.10;;
3755;SDS011;1893;52.526;13.360;2023-05-23T12:57:38;19.93;;;16.70;;
3755;SDS011;1893;52.526;13.360;2023-05-23T13:00:04;20.30;;;15.57;;
3755;SDS011;1893;52.526;13.360;2023-05-23T13:02:30;23.07;;;15.67;;
3755;SDS011;1893;52.526;13.360;2023-05-23T13:04:56;21.53;;;16.00;;
3755;SDS011;1893;52.526;13.360;2023-05-23T13:07:22;23.60;;;14.60;;
3755;SDS011;1893;52.526;13.360;2023-05-23T13:09:48;21.37;;;18.80;;
3755;SDS011;1893;52.526;13.360;2023-05-23T13:12:13;23.77;;;18.93;;
3755;SDS011;1893;52.526;13.360;2023-05-23T13:14:40;24.00;;;17.73;;
3755;SDS011;1893;52.526;13.360;2023-05-23T13:17:06;20.50;;;17.50;;
3755;SDS011;1893;52.526;13.360;2023-05-23T13:19:31;26.93;;;19.03;;
3755;SDS011;1893;52.526;13.360;2023-05-23T13:22:00;26.73;;;20.93;;
3755;SDS011;1893;52.526;13.360;2023-05-23T13:24:28;28.00;;;20.90;;
3755;SDS011;1893;52.526;13.360;2023-05-23T13:26:54;26.53;;;19.50;;
3755;SDS011;1893;52.526;13.360;2023-05-23T13:29:19;32.27;;;22.80;;
3755;SDS011;1893;52.526;13.360;2023-05-23T13:31:45;25.73;;;19.80;;
3755;SDS011;1893;52.526;13.360;2023-05-23T13:34:11;24.30;;;18.57;;
3755;SDS011;1893;52.526;13.360;2023-05-23T13:36:36;25.87;;;19.47;;
3755;SDS011;1893;52.526;13.360;2023-05-23T13:39:02;23.17;;;17.63;;
3755;SDS011;1893;52.526;13.360;2023-05-23T13:41:28;22.93;;;18.23;;
3755;SDS011;1893;52.526;13.360;2023-05-23T13:43:53;32.33;;;21.87;;
3755;SDS011;1893;52.526;13.360;2023-05-23T13:46:20;22.83;;;18.00;;
3755;SDS011;1893;52.526;13.360;2023-05-23T13:48:45;25.60;;;17.23;;
3755;SDS011;1893;52.526;13.360;2023-05-23T13:51:11;20.17;;;15.97;;
3755;SDS011;1893;52.526;13.360;2023-05-23T13:53:36;24.47;;;16.73;;
3755;SDS011;1893;52.526;13.360;2023-05-23T13:56:02;28.37;;;17.80;;
3755;SDS011;1893;52.526;13.360;2023-05-23T13:58:29;26.17;;;19.30;;
3755;SDS011;1893;52.526;13.360;2023-05-23T14:00:54;26.20;;;19.47;;
3755;SDS011;1893;52.526;13.360;2023-05-23T14:03:20;29.90;;;19.80;;
3755;SDS011;1893;52.526;13.360;2023-05-23T14:05:46;27.40;;;18.50;;
3755;SDS011;1893;52.526;13.360;2023-05-23T14:08:12;27.40;;;19.67;;
3755;SDS011;1893;52.526;13.360;2023-05-23T14:10:38;33.00;;;20.13;;
3755;SDS011;1893;52.526;13.360;2023-05-23T14:13:04;34.80;;;20.30;;
3755;SDS011;1893;52.526;13.360;2023-05-23T14:15:31;29.90;;;19.87;;
3755;SDS011;1893;52.526;13.360;2023-05-23T14:17:57;26.17;;;17.97;;
3755;SDS011;1893;52.526;13.360;2023-05-23T14:20:23;31.17;;;20.37;;
3755;SDS011;1893;52.526;13.360;2023-05-23T14:22:49;26.50;;;19.73;;
3755;SDS011;1893;52.526;13.360;2023-05-23T14:25:16;26.93;;;19.40;;
3755;SDS011;1893;52.526;13.360;2023-05-23T14:27:42;29.20;;;19.67;;
3755;SDS011;1893;52.526;13.360;2023-05-23T14:30:08;28.20;;;19.13;;
3755;SDS011;1893;52.526;13.360;2023-05-23T14:32:34;26.40;;;19.67;;
3755;SDS011;1893;52.526;13.360;2023-05-23T14:35:06;29.63;;;20.33;;
3755;SDS011;1893;52.526;13.360;2023-05-23T14:37:33;30.57;;;19.40;;
3755;SDS011;1893;52.526;13.360;2023-05-23T14:39:59;26.90;;;19.47;;
3755;SDS011;1893;52.526;13.360;2023-05-23T14:42:25;21.63;;;16.73;;
3755;SDS011;1893;52.526;13.360;2023-05-23T14:44:51;20.73;;;16.00;;
3755;SDS011;1893;52.526;13.360;2023-05-23T14:47:20;26.17;;;17.43;;
3755;SDS011;1893;52.526;13.360;2023-05-23T14:49:45;20.60;;;16.80;;
3755;SDS011;1893;52.526;13.360;2023-05-23T14:52:11;24.13;;;18.20;;
3755;SDS011;1893;52.526;13.360;2023-05-23T14:54:37;21.43;;;16.13;;
3755;SDS011;1893;52.526;13.360;2023-05-23T14:57:08;17.10;;;14.27;;
3755;SDS011;1893;52.526;13.360;2023-05-23T14:59:34;24.03;;;15.60;;
3755;SDS011;1893;52.526;13.360;2023-05-23T15:02:01;17.00;;;11.20;;
3755;SDS011;1893;52.526;13.360;2023-05-23T15:04:27;13.33;;;11.47;;
3755;SDS011;1893;52.526;13.360;2023-05-23T15:06:54;14.00;;;9.73;;
3755;SDS011;1893;52.526;13.360;2023-05-23T15:09:19;12.53;;;9.67;;
3755;SDS011;1893;52.526;13.360;2023-05-23T15:11:45;14.83;;;9.43;;
3755;SDS011;1893;52.526;13.360;2023-05-23T15:14:13;11.80;;;10.00;;
3755;SDS011;1893;52.526;13.360;2023-05-23T15:16:40;16.80;;;9.43;;
3755;SDS011;1893;52.526;13.360;2023-05-23T15:19:08;10.70;;;8.77;;
3755;SDS011;1893;52.526;13.360;2023-05-23T15:21:34;9.10;;;7.43;;
3755;SDS011;1893;52.526;13.360;2023-05-23T15:24:00;13.43;;;8.90;;
3755;SDS011;1893;52.526;13.360;2023-05-23T15:26:26;12.07;;;8.90;;
3755;SDS011;1893;52.526;13.360;2023-05-23T15:28:52;16.00;;;8.57;;